createdAt,value
2017-12-09T00:00:19.650Z,99761
2017-12-09T00:01:19.707Z,99754
2017-12-09T00:02:18.802Z,99757
2017-12-09T00:03:19.733Z,99766
2017-12-09T00:04:18.795Z,99762
2017-12-09T00:05:18.955Z,99758
2017-12-09T00:06:18.904Z,99769
2017-12-09T00:07:19.077Z,99749
2017-12-09T00:08:20.064Z,99760
2017-12-09T00:09:20.131Z,99755
2017-12-09T00:10:19.059Z,99755
2017-12-09T00:11:20.169Z,99749
2017-12-09T00:12:20.283Z,99759
2017-12-09T00:13:20.234Z,99753
2017-12-09T00:14:19.289Z,99757
2017-12-09T00:15:20.298Z,99770
2017-12-09T00:16:20.470Z,99763
2017-12-09T00:17:20.556Z,99763
2017-12-09T00:18:19.567Z,99760
2017-12-09T00:19:20.667Z,99768
2017-12-09T00:20:20.672Z,99764
2017-12-09T00:21:19.607Z,99762
2017-12-09T00:22:20.745Z,99763
2017-12-09T00:23:19.808Z,99764
2017-12-09T00:24:19.842Z,99761
2017-12-09T00:25:20.844Z,99757
2017-12-09T00:26:19.798Z,99756
2017-12-09T00:27:20.887Z,99759
2017-12-09T00:28:20.966Z,99763
2017-12-09T00:29:20.078Z,99762
2017-12-09T00:30:19.980Z,99758
2017-12-09T00:31:20.113Z,99768
2017-12-09T00:32:21.153Z,99765
2017-12-09T00:33:20.132Z,99771
2017-12-09T00:34:20.314Z,99753
2017-12-09T00:35:21.383Z,99761
2017-12-09T00:36:21.437Z,99768
2017-12-09T00:37:21.371Z,99772
2017-12-09T00:38:20.479Z,99773
2017-12-09T00:39:21.591Z,99770
2017-12-09T00:40:21.558Z,99769
2017-12-09T00:41:21.692Z,99761
2017-12-09T00:42:21.651Z,99761
2017-12-09T00:43:20.829Z,99764
2017-12-09T00:44:21.856Z,99762
2017-12-09T00:45:20.856Z,99759
2017-12-09T00:46:21.839Z,99759
2017-12-09T00:47:21.951Z,99752
2017-12-09T00:48:21.048Z,99755
2017-12-09T00:49:21.996Z,99756
2017-12-09T00:50:22.119Z,99748
2017-12-09T00:51:22.061Z,99750
2017-12-09T00:52:22.096Z,99756
2017-12-09T00:53:22.124Z,99760
2017-12-09T00:54:22.131Z,99754
2017-12-09T00:55:21.215Z,99754
2017-12-09T00:56:22.249Z,99752
2017-12-09T00:57:22.254Z,99750
2017-12-09T00:58:21.325Z,99758
2017-12-09T00:59:22.404Z,99760
2017-12-09T01:00:22.356Z,99763
2017-12-09T01:01:22.454Z,99761
2017-12-09T01:02:22.593Z,99756
2017-12-09T01:03:21.589Z,99744
2017-12-09T01:04:22.628Z,99746
2017-12-09T01:05:22.836Z,99749
2017-12-09T01:06:21.944Z,99754
2017-12-09T01:07:22.915Z,99756
2017-12-09T01:08:21.934Z,99764
2017-12-09T01:09:22.017Z,99767
2017-12-09T01:10:22.141Z,99763
2017-12-09T01:11:23.070Z,99762
2017-12-09T01:12:22.174Z,99759
2017-12-09T01:13:23.292Z,99753
2017-12-09T01:14:22.366Z,99747
2017-12-09T01:15:23.377Z,99762
2017-12-09T01:16:22.390Z,99766
2017-12-09T01:17:23.444Z,99766
2017-12-09T01:18:23.656Z,99765
2017-12-09T01:19:22.594Z,99768
2017-12-09T01:20:23.700Z,99756
2017-12-09T01:21:23.781Z,99768
2017-12-09T01:22:23.857Z,99761
2017-12-09T01:23:22.867Z,99763
2017-12-09T01:24:22.939Z,99759
2017-12-09T01:25:22.970Z,99769
2017-12-09T01:26:23.029Z,99768
2017-12-09T01:27:23.187Z,99768
2017-12-09T01:28:24.188Z,99781
2017-12-09T01:29:23.174Z,99771
2017-12-09T01:30:23.301Z,99783
2017-12-09T01:31:23.350Z,99781
2017-12-09T01:32:24.387Z,99786
2017-12-09T01:33:24.393Z,99783
2017-12-09T01:34:23.428Z,99779
2017-12-09T01:35:23.377Z,99778
2017-12-09T01:36:24.490Z,99787
2017-12-09T01:37:23.566Z,99788
2017-12-09T01:38:24.591Z,99790
2017-12-09T01:39:23.668Z,99781
2017-12-09T01:40:24.612Z,99785
2017-12-09T01:41:23.831Z,99778
2017-12-09T01:42:24.749Z,99780
2017-12-09T01:43:24.913Z,99786
2017-12-09T01:44:24.007Z,99789
2017-12-09T01:45:23.954Z,99780
2017-12-09T01:46:24.974Z,99778
2017-12-09T01:47:24.130Z,99786
2017-12-09T01:48:24.040Z,99785
2017-12-09T01:49:25.201Z,99790
2017-12-09T01:50:24.187Z,99783
2017-12-09T01:51:24.257Z,99793
2017-12-09T01:52:24.381Z,99789
2017-12-09T01:53:25.251Z,99789
2017-12-09T01:54:25.283Z,99795
2017-12-09T01:55:25.425Z,99796
2017-12-09T01:56:24.528Z,99800
2017-12-09T01:57:25.453Z,99786
2017-12-09T01:58:24.560Z,99788
2017-12-09T01:59:24.650Z,99795
2017-12-09T02:00:24.697Z,99802
2017-12-09T02:01:24.719Z,99804
2017-12-09T02:02:24.698Z,99803
2017-12-09T02:03:25.818Z,99801
2017-12-09T02:04:24.872Z,99804
2017-12-09T02:05:24.951Z,99805
2017-12-09T02:07:24.974Z,99801
2017-12-09T02:08:26.026Z,99798
2017-12-09T02:09:26.040Z,99801
2017-12-09T02:10:25.000Z,99802
2017-12-09T02:11:25.963Z,99800
2017-12-09T02:12:26.030Z,99800
2017-12-09T02:13:26.065Z,99805
2017-12-09T02:14:26.181Z,99811
2017-12-09T02:15:25.164Z,99809
2017-12-09T02:16:25.189Z,99812
2017-12-09T02:17:26.325Z,99810
2017-12-09T02:18:25.338Z,99805
2017-12-09T02:19:25.349Z,99810
2017-12-09T02:20:26.386Z,99806
2017-12-09T02:21:26.536Z,99812
2017-12-09T02:22:25.500Z,99807
2017-12-09T02:23:25.673Z,99816
2017-12-09T02:24:25.596Z,99817
2017-12-09T02:25:26.705Z,99821
2017-12-09T02:26:25.826Z,99810
2017-12-09T02:27:26.752Z,99811
2017-12-09T02:28:25.955Z,99806
2017-12-09T02:29:25.964Z,99804
2017-12-09T02:30:26.004Z,99803
2017-12-09T02:31:25.950Z,99802
2017-12-09T02:32:27.071Z,99805
2017-12-09T02:33:27.050Z,99804
2017-12-09T02:34:26.149Z,99802
2017-12-09T02:35:26.157Z,99802
2017-12-09T02:36:26.292Z,99801
2017-12-09T02:37:26.222Z,99806
2017-12-09T02:38:26.378Z,99809
2017-12-09T02:39:27.446Z,99806
2017-12-09T02:40:26.447Z,99808
2017-12-09T02:41:26.640Z,99808
2017-12-09T02:42:26.675Z,99812
2017-12-09T02:43:26.710Z,99808
2017-12-09T02:44:26.714Z,99811
2017-12-09T02:45:27.768Z,99805
2017-12-09T02:46:26.700Z,99801
2017-12-09T02:47:26.748Z,99788
2017-12-09T02:48:26.780Z,99789
2017-12-09T02:49:26.942Z,99788
2017-12-09T02:50:27.825Z,99794
2017-12-09T02:51:27.867Z,99801
2017-12-09T02:52:28.047Z,99799
2017-12-09T02:53:27.995Z,99799
2017-12-09T02:54:27.076Z,99803
2017-12-09T02:55:27.160Z,99801
2017-12-09T02:56:27.298Z,99796
2017-12-09T02:57:27.215Z,99801
2017-12-09T02:58:27.300Z,99798
2017-12-09T02:59:27.297Z,99789
2017-12-09T03:00:27.359Z,99796
2017-12-09T03:01:28.330Z,99791
2017-12-09T03:02:28.415Z,99792
2017-12-09T03:03:28.419Z,99789
2017-12-09T03:04:27.480Z,99776
2017-12-09T03:05:27.565Z,99785
2017-12-09T03:06:27.706Z,99785
2017-12-09T03:07:27.829Z,99785
2017-12-09T03:08:27.899Z,99782
2017-12-09T03:09:27.834Z,99785
2017-12-09T03:10:28.852Z,99794
2017-12-09T03:11:28.997Z,99783
2017-12-09T03:12:28.100Z,99784
2017-12-09T03:13:29.108Z,99774
2017-12-09T03:14:28.182Z,99772
2017-12-09T03:15:28.206Z,99767
2017-12-09T03:16:29.208Z,99765
2017-12-09T03:17:29.294Z,99756
2017-12-09T03:18:29.359Z,99757
2017-12-09T03:19:29.435Z,99755
2017-12-09T03:20:28.566Z,99754
2017-12-09T03:21:29.483Z,99751
2017-12-09T03:22:28.673Z,99746
2017-12-09T03:23:29.595Z,99746
2017-12-09T03:24:28.717Z,99749
2017-12-09T03:25:29.716Z,99749
2017-12-09T03:26:29.772Z,99747
2017-12-09T03:27:28.850Z,99753
2017-12-09T03:28:28.986Z,99751
2017-12-09T03:29:29.031Z,99743
2017-12-09T03:30:29.104Z,99749
2017-12-09T03:31:29.117Z,99746
2017-12-09T03:32:30.158Z,99744
2017-12-09T03:33:29.250Z,99747
2017-12-09T03:34:30.244Z,99745
2017-12-09T03:35:29.354Z,99747
2017-12-09T03:36:29.249Z,99749
2017-12-09T03:37:29.441Z,99755
2017-12-09T03:38:30.287Z,99747
2017-12-09T03:39:29.352Z,99761
2017-12-09T03:40:30.323Z,99760
2017-12-09T03:41:29.383Z,99758
2017-12-09T03:42:29.421Z,99758
2017-12-09T03:43:29.499Z,99765
2017-12-09T03:44:30.528Z,99757
2017-12-09T03:45:30.676Z,99766
2017-12-09T03:46:29.765Z,99762
2017-12-09T03:47:30.644Z,99765
2017-12-09T03:48:30.694Z,99770
2017-12-09T03:49:30.824Z,99768
2017-12-09T03:50:29.832Z,99773
2017-12-09T03:51:29.974Z,99779
2017-12-09T03:52:30.988Z,99774
2017-12-09T03:53:31.028Z,99758
2017-12-09T03:54:30.986Z,99758
2017-12-09T03:55:30.124Z,99758
2017-12-09T03:56:30.161Z,99762
2017-12-09T03:57:30.186Z,99762
2017-12-09T03:58:31.307Z,99759
2017-12-09T03:59:30.284Z,99758
2017-12-09T04:00:31.355Z,99756
2017-12-09T04:01:31.422Z,99748
2017-12-09T04:02:30.493Z,99748
2017-12-09T04:03:30.600Z,99756
2017-12-09T04:04:30.556Z,99752
2017-12-09T04:05:30.578Z,99748
2017-12-09T04:06:31.736Z,99745
2017-12-09T04:07:30.724Z,99740
2017-12-09T04:08:31.745Z,99744
2017-12-09T04:09:31.774Z,99740
2017-12-09T04:10:31.906Z,99745
2017-12-09T04:11:31.019Z,99745
2017-12-09T04:12:30.936Z,99749
2017-12-09T04:13:30.984Z,99751
2017-12-09T04:14:32.037Z,99754
2017-12-09T04:15:31.229Z,99750
2017-12-09T04:16:31.167Z,99754
2017-12-09T04:17:32.152Z,99761
2017-12-09T04:18:31.223Z,99751
2017-12-09T04:19:31.275Z,99765
2017-12-09T04:20:32.285Z,99759
2017-12-09T04:21:31.422Z,99763
2017-12-09T04:22:32.360Z,99756
2017-12-09T04:23:31.567Z,99766
2017-12-09T04:24:31.520Z,99765
2017-12-09T04:25:31.597Z,99770
2017-12-09T04:26:32.737Z,99764
2017-12-09T04:27:31.756Z,99768
2017-12-09T04:28:32.841Z,99760
2017-12-09T04:29:31.928Z,99763
2017-12-09T04:30:32.921Z,99771
2017-12-09T04:31:32.952Z,99769
2017-12-09T04:32:32.056Z,99765
2017-12-09T04:33:32.959Z,99764
2017-12-09T04:34:33.132Z,99759
2017-12-09T04:35:32.177Z,99759
2017-12-09T04:36:33.183Z,99760
2017-12-09T04:37:33.117Z,99755
2017-12-09T04:38:33.168Z,99758
2017-12-09T04:39:33.300Z,99757
2017-12-09T04:40:32.386Z,99761
2017-12-09T04:41:33.423Z,99755
2017-12-09T04:42:32.408Z,99749
2017-12-09T04:43:32.509Z,99753
2017-12-09T04:44:33.537Z,99757
2017-12-09T04:45:32.518Z,99750
2017-12-09T04:46:32.671Z,99755
2017-12-09T04:47:33.692Z,99743
2017-12-09T04:48:32.794Z,99753
2017-12-09T04:49:33.862Z,99753
2017-12-09T04:50:32.958Z,99758
2017-12-09T04:51:33.870Z,99752
2017-12-09T04:52:34.056Z,99767
2017-12-09T04:53:34.010Z,99769
2017-12-09T04:54:33.165Z,99772
2017-12-09T04:55:34.085Z,99755
2017-12-09T04:56:34.201Z,99768
2017-12-09T04:57:33.201Z,99774
2017-12-09T04:58:33.268Z,99772
2017-12-09T04:59:33.404Z,99774
2017-12-09T05:00:33.440Z,99769
2017-12-09T05:01:33.498Z,99762
2017-12-09T05:02:34.542Z,99763
2017-12-09T05:03:33.462Z,99758
2017-12-09T05:04:33.545Z,99754
2017-12-09T05:05:33.581Z,99762
2017-12-09T05:06:33.765Z,99759
2017-12-09T05:07:34.699Z,99765
2017-12-09T05:08:34.835Z,99753
2017-12-09T05:09:33.810Z,99755
2017-12-09T05:10:34.885Z,99758
2017-12-09T05:11:34.816Z,99765
2017-12-09T05:12:34.857Z,99766
2017-12-09T05:13:35.004Z,99757
2017-12-09T05:14:34.106Z,99765
2017-12-09T05:15:34.021Z,99750
2017-12-09T05:16:34.171Z,99749
2017-12-09T05:17:35.047Z,99751
2017-12-09T05:18:35.191Z,99755
2017-12-09T05:19:35.219Z,99759
2017-12-09T05:20:34.240Z,99762
2017-12-09T05:21:34.297Z,99756
2017-12-09T05:22:35.150Z,99753
2017-12-09T05:23:34.298Z,99755
2017-12-09T05:24:34.319Z,99755
2017-12-09T05:25:34.366Z,99757
2017-12-09T05:26:35.297Z,99756
2017-12-09T05:27:34.370Z,99756
2017-12-09T05:28:34.412Z,99753
2017-12-09T05:29:34.478Z,99758
2017-12-09T05:30:35.643Z,99757
2017-12-09T05:31:35.615Z,99755
2017-12-09T05:32:35.688Z,99753
2017-12-09T05:33:34.859Z,99753
2017-12-09T05:34:35.750Z,99758
2017-12-09T05:35:35.903Z,99755
2017-12-09T05:36:35.996Z,99755
2017-12-09T05:37:35.933Z,99746
2017-12-09T05:38:35.946Z,99751
2017-12-09T05:39:35.159Z,99750
2017-12-09T05:40:35.106Z,99754
2017-12-09T05:41:36.274Z,99753
2017-12-09T05:42:35.289Z,99757
2017-12-09T05:43:35.340Z,99749
2017-12-09T05:44:36.481Z,99748
2017-12-09T05:45:36.553Z,99765
2017-12-09T05:46:35.648Z,99768
2017-12-09T05:47:36.544Z,99766
2017-12-09T05:48:36.696Z,99772
2017-12-09T05:49:35.703Z,99767
2017-12-09T05:50:36.846Z,99766
2017-12-09T05:51:36.812Z,99758
2017-12-09T05:52:35.997Z,99762
2017-12-09T05:53:37.012Z,99764
2017-12-09T05:54:35.997Z,99759
2017-12-09T05:55:36.998Z,99762
2017-12-09T05:56:36.075Z,99755
2017-12-09T05:58:37.166Z,99763
2017-12-09T05:59:36.309Z,99754
2017-12-09T06:00:37.229Z,99759
2017-12-09T06:01:37.332Z,99757
2017-12-09T06:02:36.325Z,99767
2017-12-09T06:03:37.338Z,99756
2017-12-09T06:04:37.333Z,99764
2017-12-09T06:05:36.507Z,99757
2017-12-09T06:06:36.575Z,99763
2017-12-09T06:07:36.635Z,99756
2017-12-09T06:08:37.658Z,99756
2017-12-09T06:09:37.589Z,99758
2017-12-09T06:10:37.745Z,99761
2017-12-09T06:11:36.840Z,99756
2017-12-09T06:12:37.738Z,99759
2017-12-09T06:13:37.895Z,99754
2017-12-09T06:14:36.992Z,99747
2017-12-09T06:15:36.896Z,99747
2017-12-09T06:16:38.030Z,99740
2017-12-09T06:17:36.968Z,99742
2017-12-09T06:18:37.117Z,99741
2017-12-09T06:19:38.014Z,99737
2017-12-09T06:20:38.147Z,99741
2017-12-09T06:21:38.171Z,99745
2017-12-09T06:22:38.214Z,99747
2017-12-09T06:23:38.271Z,99754
2017-12-09T06:24:38.239Z,99754
2017-12-09T06:25:38.386Z,99753
2017-12-09T06:26:38.450Z,99758
2017-12-09T06:27:38.393Z,99758
2017-12-09T06:28:37.568Z,99762
2017-12-09T06:29:38.577Z,99764
2017-12-09T06:30:37.666Z,99767
2017-12-09T06:31:37.741Z,99763
2017-12-09T06:32:38.675Z,99758
2017-12-09T06:33:37.767Z,99763
2017-12-09T06:34:37.769Z,99766
2017-12-09T06:35:37.886Z,99766
2017-12-09T06:36:37.923Z,99763
2017-12-09T06:37:38.825Z,99760
2017-12-09T06:38:38.080Z,99759
2017-12-09T06:39:38.014Z,99764
2017-12-09T06:40:39.179Z,99760
2017-12-09T06:41:38.107Z,99770
2017-12-09T06:42:38.217Z,99750
2017-12-09T06:43:39.130Z,99770
2017-12-09T06:44:39.161Z,99769
2017-12-09T06:45:39.198Z,99769
2017-12-09T06:46:38.292Z,99762
2017-12-09T06:47:38.385Z,99764
2017-12-09T06:48:38.411Z,99761
2017-12-09T06:49:39.315Z,99765
2017-12-09T06:50:39.364Z,99770
2017-12-09T06:51:38.538Z,99761
2017-12-09T06:52:39.561Z,99770
2017-12-09T06:53:39.526Z,99768
2017-12-09T06:54:38.661Z,99771
2017-12-09T06:55:38.654Z,99760
2017-12-09T06:56:39.799Z,99764
2017-12-09T06:57:39.809Z,99759
2017-12-09T06:58:38.795Z,99760
2017-12-09T06:59:38.970Z,99764
2017-12-09T07:00:38.995Z,99761
2017-12-09T07:01:40.040Z,99757
2017-12-09T07:02:38.989Z,99754
2017-12-09T07:03:40.009Z,99761
2017-12-09T07:04:40.076Z,99763
2017-12-09T07:05:40.273Z,99761
2017-12-09T07:06:40.221Z,99762
2017-12-09T07:07:39.442Z,99761
2017-12-09T07:08:40.431Z,99754
2017-12-09T07:09:40.513Z,99765
2017-12-09T07:10:40.488Z,99761
2017-12-09T07:11:40.612Z,99766
2017-12-09T07:12:39.713Z,99770
2017-12-09T07:13:39.638Z,99767
2017-12-09T07:14:40.757Z,99759
2017-12-09T07:15:40.728Z,99766
2017-12-09T07:16:40.776Z,99773
2017-12-09T07:17:40.934Z,99778
2017-12-09T07:18:39.953Z,99783
2017-12-09T07:19:41.036Z,99784
2017-12-09T07:20:41.056Z,99790
2017-12-09T07:21:40.984Z,99790
2017-12-09T07:22:40.032Z,99788
2017-12-09T07:23:40.150Z,99788
2017-12-09T07:24:41.102Z,99791
2017-12-09T07:25:41.272Z,99787
2017-12-09T07:26:41.357Z,99794
2017-12-09T07:27:41.268Z,99794
2017-12-09T07:28:41.297Z,99798
2017-12-09T07:29:40.466Z,99801
2017-12-09T07:30:40.431Z,99805
2017-12-09T07:31:41.590Z,99805
2017-12-09T07:32:41.535Z,99801
2017-12-09T07:33:41.560Z,99798
2017-12-09T07:34:41.589Z,99807
2017-12-09T07:35:41.631Z,99799
2017-12-09T07:36:41.721Z,99805
2017-12-09T07:37:41.853Z,99803
2017-12-09T07:38:41.789Z,99804
2017-12-09T07:39:40.906Z,99806
2017-12-09T07:40:41.868Z,99811
2017-12-09T07:41:40.942Z,99810
2017-12-09T07:42:41.987Z,99812
2017-12-09T07:43:41.135Z,99810
2017-12-09T07:44:41.037Z,99807
2017-12-09T07:45:41.092Z,99813
2017-12-09T07:46:41.100Z,99812
2017-12-09T07:47:41.102Z,99805
2017-12-09T07:48:41.178Z,99805
2017-12-09T07:49:42.148Z,99813
2017-12-09T07:50:41.191Z,99813
2017-12-09T07:51:41.257Z,99814
2017-12-09T07:52:42.223Z,99817
2017-12-09T07:53:41.280Z,99815
2017-12-09T07:54:42.262Z,99816
2017-12-09T07:55:42.308Z,99824
2017-12-09T07:56:41.386Z,99822
2017-12-09T07:57:42.418Z,99817
2017-12-09T07:58:41.602Z,99816
2017-12-09T07:59:42.610Z,99820
2017-12-09T08:00:42.667Z,99824
2017-12-09T08:01:41.677Z,99824
2017-12-09T08:02:41.788Z,99821
2017-12-09T08:03:42.804Z,99821
2017-12-09T08:04:42.710Z,99817
2017-12-09T08:05:41.770Z,99819
2017-12-09T08:06:42.875Z,99821
2017-12-09T08:07:42.933Z,99819
2017-12-09T08:08:42.886Z,99826
2017-12-09T08:09:41.940Z,99827
2017-12-09T08:10:42.122Z,99824
2017-12-09T08:11:43.031Z,99834
2017-12-09T08:12:43.049Z,99840
2017-12-09T08:13:43.141Z,99838
2017-12-09T08:14:42.312Z,99838
2017-12-09T08:15:42.375Z,99833
2017-12-09T08:16:43.399Z,99833
2017-12-09T08:17:43.418Z,99830
2017-12-09T08:18:43.471Z,99832
2017-12-09T08:19:43.511Z,99829
2017-12-09T08:20:43.601Z,99835
2017-12-09T08:21:43.547Z,99834
2017-12-09T08:22:43.560Z,99831
2017-12-09T08:23:42.747Z,99832
2017-12-09T08:24:43.777Z,99834
2017-12-09T08:25:43.699Z,99837
2017-12-09T08:26:43.858Z,99835
2017-12-09T08:27:43.856Z,99833
2017-12-09T08:28:42.842Z,99835
2017-12-09T08:29:43.927Z,99843
2017-12-09T08:30:43.989Z,99841
2017-12-09T08:31:44.000Z,99850
2017-12-09T08:32:43.074Z,99839
2017-12-09T08:33:43.977Z,99837
2017-12-09T08:34:44.011Z,99840
2017-12-09T08:35:44.061Z,99844
2017-12-09T08:36:44.100Z,99850
2017-12-09T08:37:44.146Z,99852
2017-12-09T08:38:44.346Z,99845
2017-12-09T08:39:44.297Z,99853
2017-12-09T08:40:43.386Z,99838
2017-12-09T08:41:44.529Z,99841
2017-12-09T08:42:44.625Z,99834
2017-12-09T08:43:43.751Z,99852
2017-12-09T08:44:44.716Z,99840
2017-12-09T08:45:43.649Z,99838
2017-12-09T08:46:43.832Z,99834
2017-12-09T08:47:43.873Z,99838
2017-12-09T08:48:44.832Z,99841
2017-12-09T08:49:43.937Z,99851
2017-12-09T08:50:44.986Z,99838
2017-12-09T08:51:44.072Z,99841
2017-12-09T08:52:44.103Z,99850
2017-12-09T08:53:45.043Z,99843
2017-12-09T08:54:45.061Z,99844
2017-12-09T08:55:45.131Z,99849
2017-12-09T08:56:45.304Z,99862
2017-12-09T08:57:44.330Z,99852
2017-12-09T08:58:44.272Z,99853
2017-12-09T08:59:44.332Z,99848
2017-12-09T09:00:45.399Z,99838
2017-12-09T09:01:45.504Z,99845
2017-12-09T09:02:45.581Z,99850
2017-12-09T09:03:45.536Z,99845
2017-12-09T09:04:45.535Z,99841
2017-12-09T09:05:45.576Z,99854
2017-12-09T09:06:44.644Z,99849
2017-12-09T09:07:44.721Z,99855
2017-12-09T09:08:44.868Z,99841
2017-12-09T09:09:44.851Z,99851
2017-12-09T09:10:45.723Z,99838
2017-12-09T09:11:45.885Z,99846
2017-12-09T09:12:44.967Z,99844
2017-12-09T09:13:44.900Z,99836
2017-12-09T09:14:46.010Z,99851
2017-12-09T09:15:45.941Z,99837
2017-12-09T09:16:44.993Z,99841
2017-12-09T09:17:46.142Z,99847
2017-12-09T09:18:45.147Z,99847
2017-12-09T09:19:46.229Z,99846
2017-12-09T09:20:46.308Z,99847
2017-12-09T09:21:45.335Z,99848
2017-12-09T09:22:45.389Z,99849
2017-12-09T09:23:45.354Z,99854
2017-12-09T09:24:46.389Z,99849
2017-12-09T09:25:45.546Z,99855
2017-12-09T09:26:46.463Z,99854
2017-12-09T09:27:45.586Z,99851
2017-12-09T09:28:45.598Z,99850
2017-12-09T09:29:46.603Z,99853
2017-12-09T09:30:45.633Z,99855
2017-12-09T09:31:45.751Z,99843
2017-12-09T09:32:45.719Z,99844
2017-12-09T09:33:46.691Z,99848
2017-12-09T09:34:45.857Z,99854
2017-12-09T09:35:46.879Z,99836
2017-12-09T09:36:45.869Z,99849
2017-12-09T09:37:46.049Z,99845
2017-12-09T09:38:46.138Z,99841
2017-12-09T09:39:47.176Z,99849
2017-12-09T09:40:47.225Z,99839
2017-12-09T09:41:47.169Z,99853
2017-12-09T09:42:47.197Z,99843
2017-12-09T09:43:47.290Z,99853
2017-12-09T09:44:46.369Z,99840
2017-12-09T09:45:47.358Z,99852
2017-12-09T09:46:46.566Z,99846
2017-12-09T09:47:46.628Z,99844
2017-12-09T09:48:46.683Z,99846
2017-12-09T09:49:47.771Z,99842
2017-12-09T09:50:47.803Z,99844
2017-12-09T09:51:47.739Z,99848
2017-12-09T09:52:46.843Z,99839
2017-12-09T09:53:47.950Z,99840
2017-12-09T09:54:46.948Z,99850
2017-12-09T09:55:47.103Z,99847
2017-12-09T09:56:48.099Z,99842
2017-12-09T09:57:48.195Z,99842
2017-12-09T09:58:48.091Z,99836
2017-12-09T09:59:47.228Z,99838
2017-12-09T10:00:48.102Z,99841
2017-12-09T10:01:47.296Z,99836
2017-12-09T10:02:48.218Z,99834
2017-12-09T10:03:47.439Z,99845
2017-12-09T10:04:47.370Z,99837
2017-12-09T10:05:47.474Z,99850
2017-12-09T10:06:48.501Z,99853
2017-12-09T10:07:47.532Z,99857
2017-12-09T10:08:47.434Z,99857
2017-12-09T10:09:47.611Z,99856
2017-12-09T10:10:48.548Z,99859
2017-12-09T10:11:48.677Z,99850
2017-12-09T10:12:47.662Z,99858
2017-12-09T10:13:47.786Z,99852
2017-12-09T10:14:47.842Z,99857
2017-12-09T10:15:47.865Z,99851
2017-12-09T10:16:48.821Z,99858
2017-12-09T10:17:47.865Z,99857
2017-12-09T10:18:49.009Z,99856
2017-12-09T10:19:47.974Z,99860
2017-12-09T10:20:48.063Z,99858
2017-12-09T10:21:48.114Z,99869
2017-12-09T10:22:49.198Z,99862
2017-12-09T10:23:49.352Z,99864
2017-12-09T10:24:49.236Z,99865
2017-12-09T10:25:49.270Z,99865
2017-12-09T10:26:49.443Z,99865
2017-12-09T10:27:49.431Z,99868
2017-12-09T10:28:48.552Z,99866
2017-12-09T10:29:48.612Z,99867
2017-12-09T10:30:48.772Z,99870
2017-12-09T10:31:48.703Z,99866
2017-12-09T10:32:48.729Z,99870
2017-12-09T10:33:49.850Z,99855
2017-12-09T10:34:49.814Z,99851
2017-12-09T10:35:49.005Z,99863
2017-12-09T10:36:48.949Z,99865
2017-12-09T10:37:50.050Z,99863
2017-12-09T10:38:50.109Z,99865
2017-12-09T10:39:50.071Z,99870
2017-12-09T10:40:49.243Z,99863
2017-12-09T10:41:50.124Z,99862
2017-12-09T10:42:49.240Z,99865
2017-12-09T10:43:49.239Z,99859
2017-12-09T10:44:50.294Z,99857
2017-12-09T10:45:49.392Z,99867
2017-12-09T10:46:50.391Z,99862
2017-12-09T10:47:50.511Z,99858
2017-12-09T10:48:49.497Z,99857
2017-12-09T10:49:50.623Z,99855
2017-12-09T10:50:49.768Z,99858
2017-12-09T10:51:49.820Z,99855
2017-12-09T10:52:50.759Z,99851
2017-12-09T10:53:49.845Z,99861
2017-12-09T10:54:50.820Z,99856
2017-12-09T10:55:49.876Z,99851
2017-12-09T10:56:50.054Z,99856
2017-12-09T10:57:51.054Z,99857
2017-12-09T10:58:49.992Z,99860
2017-12-09T10:59:50.084Z,99859
2017-12-09T11:00:50.270Z,99856
2017-12-09T11:01:51.318Z,99862
2017-12-09T11:02:50.430Z,99858
2017-12-09T11:03:50.349Z,99859
2017-12-09T11:04:50.522Z,99864
2017-12-09T11:05:50.576Z,99857
2017-12-09T11:06:51.526Z,99854
2017-12-09T11:07:50.617Z,99865
2017-12-09T11:08:51.636Z,99858
2017-12-09T11:09:51.824Z,99857
2017-12-09T11:10:50.840Z,99853
2017-12-09T11:11:51.021Z,99854
2017-12-09T11:12:51.933Z,99856
2017-12-09T11:13:51.021Z,99855
2017-12-09T11:14:52.185Z,99856
2017-12-09T11:15:51.123Z,99853
2017-12-09T11:16:52.270Z,99855
2017-12-09T11:17:52.347Z,99844
2017-12-09T11:18:51.350Z,99857
2017-12-09T11:19:51.423Z,99849
2017-12-09T11:20:51.501Z,99855
2017-12-09T11:21:51.639Z,99848
2017-12-09T11:22:51.592Z,99857
2017-12-09T11:23:51.599Z,99851
2017-12-09T11:24:51.627Z,99855
2017-12-09T11:25:51.784Z,99855
2017-12-09T11:26:51.858Z,99849
2017-12-09T11:27:51.823Z,99860
2017-12-09T11:28:51.872Z,99849
2017-12-09T11:29:51.910Z,99854
2017-12-09T11:30:51.908Z,99849
2017-12-09T11:31:53.077Z,99857
2017-12-09T11:32:53.155Z,99858
2017-12-09T11:33:53.253Z,99848
2017-12-09T11:34:53.312Z,99850
2017-12-09T11:35:53.252Z,99858
2017-12-09T11:36:53.447Z,99853
2017-12-09T11:37:52.475Z,99808
2017-12-09T11:38:53.538Z,99865
2017-12-09T11:39:53.545Z,99868
2017-12-09T11:40:53.501Z,99861
2017-12-09T11:41:52.653Z,99861
2017-12-09T11:42:53.556Z,99862
2017-12-09T11:43:52.643Z,99862
2017-12-09T11:44:52.760Z,99864
2017-12-09T11:45:53.664Z,99866
2017-12-09T11:46:52.708Z,99862
2017-12-09T11:47:53.747Z,99862
2017-12-09T11:48:52.888Z,99867
2017-12-09T11:49:53.928Z,99867
2017-12-09T11:50:53.988Z,99869
2017-12-09T11:51:53.042Z,99868
2017-12-09T11:52:54.181Z,99869
2017-12-09T11:53:54.113Z,99869
2017-12-09T11:54:54.179Z,99870
2017-12-09T11:55:54.227Z,99867
2017-12-09T11:56:54.406Z,99861
2017-12-09T11:57:53.406Z,99863
2017-12-09T11:58:53.437Z,99862
2017-12-09T11:59:54.545Z,99867
2017-12-09T12:00:53.491Z,99866
2017-12-09T12:01:54.634Z,99876
2017-12-09T12:02:53.702Z,99867
2017-12-09T12:03:54.609Z,99867
2017-12-09T12:04:53.787Z,99871
2017-12-09T12:05:54.819Z,99866
2017-12-09T12:06:54.828Z,99866
2017-12-09T12:07:54.895Z,99868
2017-12-09T12:08:55.052Z,99859
2017-12-09T12:09:55.116Z,99862
2017-12-09T12:10:55.129Z,99860
2017-12-09T12:11:54.156Z,99858
2017-12-09T12:12:55.201Z,99860
2017-12-09T12:13:55.249Z,99860
2017-12-09T12:14:55.293Z,99864
2017-12-09T12:15:54.517Z,99858
2017-12-09T12:16:54.502Z,99859
2017-12-09T12:17:54.658Z,99859
2017-12-09T12:18:54.619Z,99842
2017-12-09T12:19:55.713Z,99851
2017-12-09T12:20:54.754Z,99850
2017-12-09T12:21:55.684Z,99856
2017-12-09T12:22:55.746Z,99852
2017-12-09T12:23:55.832Z,99851
2017-12-09T12:24:54.915Z,99853
2017-12-09T12:25:55.922Z,99844
2017-12-09T12:26:54.999Z,99850
2017-12-09T12:27:55.144Z,99850
2017-12-09T12:28:55.108Z,99854
2017-12-09T12:29:55.137Z,99857
2017-12-09T12:30:56.283Z,99856
2017-12-09T12:31:56.223Z,99853
2017-12-09T12:32:56.287Z,99854
2017-12-09T12:33:55.396Z,99856
2017-12-09T12:34:56.440Z,99853
2017-12-09T12:35:56.529Z,99846
2017-12-09T12:36:55.724Z,99848
2017-12-09T12:37:56.741Z,99855
2017-12-09T12:38:55.696Z,99848
2017-12-09T12:39:55.721Z,99851
2017-12-09T12:40:56.850Z,99861
2017-12-09T12:41:55.860Z,99862
2017-12-09T12:42:56.008Z,99858
2017-12-09T12:43:56.103Z,99858
2017-12-09T12:44:57.087Z,99858
2017-12-09T12:45:56.162Z,99857
2017-12-09T12:46:57.084Z,99857
2017-12-09T12:47:57.219Z,99857
2017-12-09T12:48:57.136Z,99853
2017-12-09T12:49:56.189Z,99856
2017-12-09T12:50:57.238Z,99857
2017-12-09T12:51:57.435Z,99854
2017-12-09T12:52:57.332Z,99855
2017-12-09T12:53:57.414Z,99854
2017-12-09T12:54:56.485Z,99845